createdAt,value
2023-03-02T00:01:58.495Z,4.53
2023-03-02T00:04:33.423Z,4.54
2023-03-02T00:07:05.772Z,4.55
2023-03-02T00:09:34.325Z,4.54
2023-03-02T00:12:02.807Z,4.52
2023-03-02T00:14:31.219Z,4.48
2023-03-02T00:17:02.757Z,4.45
2023-03-02T00:19:31.090Z,4.39
2023-03-02T00:21:59.456Z,4.38
2023-03-02T00:24:27.787Z,4.36
2023-03-02T00:26:56.266Z,4.36
2023-03-02T00:29:24.596Z,4.35
2023-03-02T00:31:53.070Z,4.36
2023-03-02T00:34:22.966Z,4.36
2023-03-02T00:36:51.355Z,4.32
2023-03-02T00:39:20.109Z,4.30
2023-03-02T00:41:49.590Z,4.27
2023-03-02T00:44:18.686Z,4.30
2023-03-02T00:46:47.347Z,4.30
2023-03-02T00:49:15.772Z,4.29
2023-03-02T00:51:45.545Z,4.28
2023-03-02T00:54:14.294Z,4.28
2023-03-02T00:56:42.910Z,4.28
2023-03-02T00:59:26.716Z,4.27
2023-03-02T01:01:58.211Z,4.28
2023-03-02T01:04:29.762Z,4.27
2023-03-02T01:07:01.459Z,4.24
2023-03-02T01:09:30.060Z,4.21
2023-03-02T01:11:59.674Z,4.19
2023-03-02T01:14:28.702Z,4.17
2023-03-02T01:16:57.038Z,4.18
2023-03-02T01:19:25.761Z,4.15
2023-03-02T01:21:54.092Z,4.11
2023-03-02T01:24:23.937Z,4.10
2023-03-02T01:26:52.293Z,4.08
2023-03-02T01:29:21.012Z,4.10
2023-03-02T01:31:49.597Z,4.08
2023-03-02T01:34:18.064Z,4.07
2023-03-02T01:36:46.674Z,4.02
2023-03-02T01:39:16.201Z,3.97
2023-03-02T01:41:47.514Z,3.97
2023-03-02T01:44:42.103Z,3.95
2023-03-02T01:47:19.558Z,3.93
2023-03-02T01:49:52.284Z,3.92
2023-03-02T01:52:21.466Z,3.91
2023-03-02T01:54:51.741Z,3.91
2023-03-02T01:57:29.636Z,3.90
2023-03-02T02:00:08.581Z,3.91
2023-03-02T02:02:41.943Z,3.92
2023-03-02T02:05:11.212Z,3.94
2023-03-02T02:07:40.146Z,3.95
2023-03-02T02:10:11.212Z,3.96
2023-03-02T02:12:41.147Z,3.94
2023-03-02T02:15:10.819Z,3.92
2023-03-02T02:17:39.184Z,3.90
2023-03-02T02:20:24.070Z,3.88
2023-03-02T02:23:07.552Z,3.85
2023-03-02T02:25:47.237Z,3.82
2023-03-02T02:28:23.676Z,3.81
2023-03-02T02:31:03.564Z,3.81
2023-03-02T02:33:33.670Z,3.80
2023-03-02T02:36:09.346Z,3.80
2023-03-02T02:38:39.679Z,3.78
2023-03-02T02:41:14.299Z,3.78
2023-03-02T02:43:44.032Z,3.81
2023-03-02T02:46:14.017Z,3.84
2023-03-02T02:48:42.320Z,3.82
2023-03-02T02:51:19.300Z,3.78
2023-03-02T02:53:59.862Z,3.72
2023-03-02T02:56:32.602Z,3.68
2023-03-02T02:59:07.176Z,3.64
2023-03-02T03:01:36.308Z,3.60
2023-03-02T03:04:07.656Z,3.57
2023-03-02T03:06:42.658Z,3.58
2023-03-02T03:09:12.665Z,3.61
2023-03-02T03:11:43.949Z,3.64
2023-03-02T03:14:17.508Z,3.66
2023-03-02T03:16:48.428Z,3.67
2023-03-02T03:19:22.594Z,3.66
2023-03-02T03:21:53.567Z,3.61
2023-03-02T03:24:22.857Z,3.55
2023-03-02T03:26:51.873Z,3.53
2023-03-02T03:29:24.288Z,3.51
2023-03-02T03:31:53.424Z,3.49
2023-03-02T03:34:22.450Z,3.49
2023-03-02T03:36:50.801Z,3.49
2023-03-02T03:39:20.704Z,3.47
2023-03-02T03:41:49.016Z,3.46
2023-03-02T03:44:17.292Z,3.48
2023-03-02T03:46:47.109Z,3.48
2023-03-02T03:49:15.500Z,3.50
2023-03-02T03:51:43.794Z,3.52
2023-03-02T03:54:12.848Z,3.49
2023-03-02T03:56:44.928Z,3.46
2023-03-02T03:59:17.294Z,3.42
2023-03-02T04:01:50.451Z,3.41
2023-03-02T04:04:22.456Z,3.40
2023-03-02T04:06:51.390Z,3.37
2023-03-02T04:09:19.915Z,3.37
2023-03-02T04:11:54.762Z,3.34
2023-03-02T04:14:25.224Z,3.30
2023-03-02T04:16:55.309Z,3.27
2023-03-02T04:19:24.635Z,3.27
2023-03-02T04:21:55.994Z,3.27
2023-03-02T04:24:24.935Z,3.30
2023-03-02T04:26:53.661Z,3.29
2023-03-02T04:29:23.355Z,3.26
2023-03-02T04:31:51.943Z,3.24
2023-03-02T04:34:21.935Z,3.24
2023-03-02T04:36:50.270Z,3.26
2023-03-02T04:39:20.183Z,3.28
2023-03-02T04:41:50.384Z,3.26
2023-03-02T04:44:19.595Z,3.24
2023-03-02T04:46:49.099Z,3.23
2023-03-02T04:49:19.460Z,3.22
2023-03-02T04:51:51.252Z,3.18
2023-03-02T04:54:22.494Z,3.18
2023-03-02T04:56:51.697Z,3.18
2023-03-02T04:59:22.429Z,3.20
2023-03-02T05:01:51.444Z,3.18
2023-03-02T05:04:19.940Z,3.15
2023-03-02T05:06:49.707Z,3.13
2023-03-02T05:09:18.576Z,3.15
2023-03-02T05:11:46.991Z,3.17
2023-03-02T05:14:15.451Z,3.21
2023-03-02T05:16:43.890Z,3.24
2023-03-02T05:19:13.498Z,3.24
2023-03-02T05:21:42.825Z,3.25
2023-03-02T05:24:13.585Z,3.25
2023-03-02T05:26:42.778Z,3.23
2023-03-02T05:29:11.133Z,3.20
2023-03-02T05:31:42.174Z,3.18
2023-03-02T05:34:14.171Z,3.18
2023-03-02T05:36:42.537Z,3.15
2023-03-02T05:39:12.676Z,3.11
2023-03-02T05:41:42.428Z,3.11
2023-03-02T05:44:12.527Z,3.10
2023-03-02T05:46:41.234Z,3.05
2023-03-02T05:49:10.676Z,3.03
2023-03-02T05:51:39.012Z,3.05
2023-03-02T05:54:07.377Z,3.05
2023-03-02T05:56:37.196Z,3.05
2023-03-02T05:59:05.520Z,3.06
2023-03-02T06:01:34.249Z,3.06
2023-03-02T06:04:02.842Z,3.01
2023-03-02T06:06:33.862Z,3.00
2023-03-02T06:09:02.548Z,2.99
2023-03-02T06:11:31.034Z,3.01
2023-03-02T06:14:00.794Z,3.01
2023-03-02T06:16:29.162Z,3.03
2023-03-02T06:18:57.523Z,3.04
2023-03-02T06:21:25.914Z,3.06
2023-03-02T06:23:54.328Z,3.07
2023-03-02T06:26:22.652Z,3.09
2023-03-02T06:28:53.583Z,3.12
2023-03-02T06:31:23.939Z,3.15
2023-03-02T06:33:52.580Z,3.15
2023-03-02T06:36:21.391Z,3.13
2023-03-02T06:38:49.973Z,3.12
2023-03-02T06:41:18.329Z,3.09
2023-03-02T06:43:46.695Z,3.08
2023-03-02T06:46:15.228Z,3.11
2023-03-02T06:48:45.049Z,3.10
2023-03-02T06:51:13.793Z,3.12
2023-03-02T06:53:42.162Z,3.15
2023-03-02T06:56:10.890Z,3.20
2023-03-02T06:58:39.306Z,3.19
2023-03-02T07:01:08.950Z,3.17
2023-03-02T07:03:37.710Z,3.15
2023-03-02T07:06:08.025Z,3.11
2023-03-02T07:08:36.424Z,3.08
2023-03-02T07:11:07.568Z,3.06
2023-03-02T07:13:37.987Z,3.10
2023-03-02T07:16:09.657Z,3.16
2023-03-02T07:18:38.019Z,3.21
2023-03-02T07:21:07.952Z,3.25
2023-03-02T07:23:37.344Z,3.27
2023-03-02T07:26:08.541Z,3.29
2023-03-02T07:28:39.739Z,3.28
2023-03-02T07:31:09.188Z,3.31
2023-03-02T07:33:38.616Z,3.34
2023-03-02T07:36:10.008Z,3.35
2023-03-02T07:38:39.995Z,3.38
2023-03-02T07:41:09.912Z,3.38
2023-03-02T07:43:38.825Z,3.38
2023-03-02T07:46:07.570Z,3.42
2023-03-02T07:48:36.181Z,3.45
2023-03-02T07:51:07.656Z,3.49
2023-03-02T07:53:36.204Z,3.49
2023-03-02T07:56:08.940Z,3.52
2023-03-02T07:58:38.024Z,3.58
2023-03-02T08:01:06.807Z,3.64
2023-03-02T08:03:35.191Z,3.68
2023-03-02T08:06:09.928Z,3.74
2023-03-02T08:08:38.821Z,3.80
2023-03-02T08:11:09.047Z,3.88
2023-03-02T08:13:37.492Z,3.95
2023-03-02T08:16:09.153Z,4.02
2023-03-02T08:18:38.112Z,4.06
2023-03-02T08:21:15.018Z,4.07
2023-03-02T08:23:43.455Z,4.09
2023-03-02T08:26:14.772Z,4.12
2023-03-02T08:28:44.925Z,4.18
2023-03-02T08:31:14.717Z,4.29
2023-03-02T08:33:43.610Z,4.31
2023-03-02T08:36:16.716Z,4.36
2023-03-02T08:38:45.746Z,4.39
2023-03-02T08:41:17.252Z,4.42
2023-03-02T08:43:45.574Z,4.41
2023-03-02T08:46:17.141Z,4.46
2023-03-02T08:48:46.120Z,4.58
2023-03-02T08:51:18.298Z,4.66
2023-03-02T08:53:50.450Z,4.75
2023-03-02T08:56:21.950Z,4.83
2023-03-02T08:58:51.478Z,4.89
2023-03-02T09:01:22.414Z,4.96
2023-03-02T09:03:50.781Z,4.97
2023-03-02T09:06:20.603Z,5.07
2023-03-02T09:08:49.647Z,5.18
2023-03-02T09:11:18.052Z,5.22
2023-03-02T09:13:46.595Z,5.28
2023-03-02T09:16:16.061Z,5.31
2023-03-02T09:18:44.589Z,5.37
2023-03-02T09:21:12.888Z,5.39
2023-03-02T09:23:42.600Z,5.41
2023-03-02T09:26:11.058Z,5.46
2023-03-02T09:28:39.908Z,5.53
2023-03-02T09:31:09.843Z,5.61
2023-03-02T09:33:38.675Z,5.73
2023-03-02T09:36:08.469Z,5.85
2023-03-02T09:38:36.824Z,5.99
2023-03-02T09:41:44.524Z,6.04
2023-03-02T09:44:33.830Z,6.07
2023-03-02T09:47:06.650Z,6.13
2023-03-02T09:49:54.975Z,6.19
2023-03-02T09:52:32.645Z,6.31
2023-03-02T09:55:12.717Z,6.34
2023-03-02T09:57:43.208Z,6.37
2023-03-02T10:00:19.917Z,6.42
2023-03-02T10:02:52.492Z,6.45
2023-03-02T10:05:26.390Z,6.51
2023-03-02T10:07:57.850Z,6.61
2023-03-02T10:10:35.470Z,6.77
2023-03-02T10:13:23.808Z,6.86
2023-03-02T10:16:07.707Z,6.83
2023-03-02T10:18:41.569Z,6.80
2023-03-02T10:21:22.140Z,6.71
2023-03-02T10:23:57.800Z,6.72
2023-03-02T10:26:40.687Z,6.74
2023-03-02T10:29:40.862Z,6.84
2023-03-02T10:32:21.124Z,7.00
2023-03-02T10:34:51.136Z,7.11
2023-03-02T10:37:25.283Z,7.13
2023-03-02T10:39:53.774Z,7.12
2023-03-02T10:42:27.415Z,7.19
2023-03-02T10:45:04.432Z,7.18
2023-03-02T10:47:32.858Z,7.21
2023-03-02T10:50:01.204Z,7.21
2023-03-02T10:52:30.579Z,7.22
2023-03-02T10:55:08.404Z,7.30
2023-03-02T10:57:39.896Z,7.49
2023-03-02T11:00:22.923Z,7.70
2023-03-02T11:02:54.038Z,7.89
2023-03-02T11:05:31.396Z,7.96
2023-03-02T11:08:02.757Z,7.97
2023-03-02T11:10:34.376Z,7.94
2023-03-02T11:13:07.598Z,7.92
2023-03-02T11:15:46.188Z,7.84
2023-03-02T11:18:26.507Z,7.72
2023-03-02T11:21:00.597Z,7.67
2023-03-02T11:23:41.200Z,7.68
2023-03-02T11:26:17.077Z,7.65
2023-03-02T11:28:55.972Z,7.72
2023-03-02T11:31:35.277Z,7.75
2023-03-02T11:34:27.443Z,7.89
2023-03-02T11:37:18.725Z,8.11
2023-03-02T11:40:06.228Z,8.29
2023-03-02T11:42:38.248Z,8.49
2023-03-02T11:45:21.675Z,8.63
2023-03-02T11:48:02.488Z,8.73
2023-03-02T11:50:33.020Z,8.76
2023-03-02T11:53:05.444Z,8.75
2023-03-02T11:55:40.864Z,8.77
2023-03-02T11:58:14.382Z,8.66
2023-03-02T12:00:44.305Z,8.57
2023-03-02T12:03:40.040Z,8.35
2023-03-02T12:06:28.642Z,8.29
2023-03-02T12:09:13.172Z,8.41
2023-03-02T12:11:42.620Z,8.49
2023-03-02T12:14:29.844Z,8.79
2023-03-02T12:17:08.556Z,9.11
2023-03-02T12:19:45.333Z,9.25
2023-03-02T12:22:14.678Z,9.23
2023-03-02T12:24:45.728Z,9.12
2023-03-02T12:27:28.866Z,8.92
2023-03-02T12:30:12.476Z,8.71
2023-03-02T12:32:40.873Z,8.81
2023-03-02T12:35:17.178Z,9.08
2023-03-02T12:37:49.792Z,9.35
2023-03-02T12:40:41.195Z,9.50
2023-03-02T12:43:28.084Z,9.49
2023-03-02T12:46:29.658Z,9.50
2023-03-02T12:49:28.673Z,9.57
2023-03-02T12:52:02.923Z,9.53
2023-03-02T12:54:34.312Z,9.65
2023-03-02T12:57:09.166Z,9.77
2023-03-02T12:59:38.187Z,9.94
2023-03-02T13:02:18.492Z,10.11
2023-03-02T13:04:54.050Z,10.16
2023-03-02T13:07:27.838Z,10.15
2023-03-02T13:09:59.162Z,10.16
2023-03-02T13:12:29.990Z,10.27
2023-03-02T13:15:00.662Z,10.58
2023-03-02T13:17:31.821Z,11.01
2023-03-02T13:20:02.346Z,11.23
2023-03-02T13:22:32.363Z,11.96
2023-03-02T13:25:05.367Z,12.83
2023-03-02T13:27:34.023Z,13.60
2023-03-02T13:30:21.124Z,14.31
2023-03-02T13:32:51.013Z,14.81
2023-03-02T13:35:26.376Z,15.14
2023-03-02T13:38:06.109Z,14.96
2023-03-02T13:40:44.909Z,15.22
2023-03-02T13:43:36.824Z,15.77
2023-03-02T13:46:24.700Z,16.13
2023-03-02T13:49:09.218Z,16.52
2023-03-02T13:51:42.036Z,16.86
2023-03-02T13:54:23.078Z,16.87
2023-03-02T13:56:53.721Z,17.16
2023-03-02T13:59:23.489Z,17.49
2023-03-02T14:01:52.570Z,17.81
2023-03-02T14:04:24.357Z,17.38
2023-03-02T14:06:54.870Z,16.04
2023-03-02T14:09:27.205Z,14.80
2023-03-02T14:11:58.194Z,13.82
2023-03-02T14:14:30.167Z,13.00
2023-03-02T14:16:58.741Z,12.45
2023-03-02T14:19:27.202Z,11.99
2023-03-02T14:21:55.589Z,11.59
2023-03-02T14:24:26.634Z,11.25
2023-03-02T14:26:54.922Z,10.98
2023-03-02T14:29:27.290Z,10.75
2023-03-02T14:31:56.799Z,10.55
2023-03-02T14:34:25.484Z,10.33
2023-03-02T14:36:56.138Z,10.16
2023-03-02T14:39:38.507Z,10.04
2023-03-02T14:42:11.326Z,9.89
2023-03-02T14:44:39.738Z,9.75
2023-03-02T14:47:10.070Z,9.58
2023-03-02T14:49:39.052Z,9.43
2023-03-02T14:52:13.844Z,9.28
2023-03-02T14:54:48.271Z,9.15
2023-03-02T14:57:21.657Z,9.08
2023-03-02T14:59:50.606Z,8.99
2023-03-02T15:02:25.761Z,8.91
2023-03-02T15:04:57.170Z,8.84
2023-03-02T15:07:27.994Z,8.77
2023-03-02T15:09:58.801Z,8.73
2023-03-02T15:12:27.307Z,8.74
2023-03-02T15:14:55.590Z,8.71
2023-03-02T15:17:24.016Z,8.67
2023-03-02T15:19:52.333Z,8.64
2023-03-02T15:22:21.570Z,8.59
2023-03-02T15:24:49.905Z,8.55
2023-03-02T15:27:19.612Z,8.52
2023-03-02T15:29:48.561Z,8.54
2023-03-02T15:32:17.729Z,8.54
2023-03-02T15:34:46.180Z,8.52
2023-03-02T15:37:14.541Z,8.51
2023-03-02T15:39:44.444Z,8.50
2023-03-02T15:42:14.075Z,8.53
2023-03-02T15:44:43.804Z,8.52
2023-03-02T15:47:12.812Z,8.51
2023-03-02T15:49:41.291Z,8.50
2023-03-02T15:52:09.987Z,8.47
2023-03-02T15:54:38.284Z,8.44
2023-03-02T15:57:07.868Z,8.44
2023-03-02T15:59:36.687Z,8.43
2023-03-02T16:02:06.745Z,8.54
2023-03-02T16:04:35.333Z,8.60
2023-03-02T16:07:04.217Z,8.59
2023-03-02T16:09:32.771Z,8.55
2023-03-02T16:12:01.590Z,8.46
2023-03-02T16:14:29.872Z,8.36
2023-03-02T16:16:58.383Z,8.24
2023-03-02T16:19:28.105Z,8.15
2023-03-02T16:21:56.437Z,8.02
2023-03-02T16:24:25.451Z,7.92
2023-03-02T16:26:54.877Z,7.81
2023-03-02T16:29:24.331Z,7.67
2023-03-02T16:31:52.917Z,7.54
2023-03-02T16:34:21.318Z,7.42
2023-03-02T16:36:51.133Z,7.30
2023-03-02T16:39:19.512Z,7.20
2023-03-02T16:41:47.813Z,7.10
2023-03-02T16:44:16.271Z,6.99
2023-03-02T16:46:44.963Z,6.87
2023-03-02T16:49:14.460Z,6.76
2023-03-02T16:51:44.109Z,6.63
2023-03-02T16:54:17.543Z,6.51
2023-03-02T16:56:47.434Z,6.38
2023-03-02T16:59:16.043Z,6.26
2023-03-02T17:01:44.585Z,6.13
2023-03-02T17:04:13.123Z,6.02
2023-03-02T17:07:03.681Z,5.91
2023-03-02T17:09:44.226Z,5.76
2023-03-02T17:12:12.627Z,5.67
2023-03-02T17:14:41.123Z,5.54
2023-03-02T17:17:09.640Z,5.46
2023-03-02T17:19:38.116Z,5.37
2023-03-02T17:22:06.479Z,5.29
2023-03-02T17:24:36.466Z,5.18
2023-03-02T17:27:13.059Z,5.08
2023-03-02T17:29:47.474Z,4.98
2023-03-02T17:32:15.835Z,4.91
2023-03-02T17:34:44.267Z,4.83
2023-03-02T17:37:12.754Z,4.77
2023-03-02T17:39:42.966Z,4.70
2023-03-02T17:42:11.258Z,4.61
2023-03-02T17:44:40.349Z,4.53
2023-03-02T17:47:09.025Z,4.45
2023-03-02T17:49:40.399Z,4.36
2023-03-02T17:52:08.978Z,4.29
2023-03-02T17:54:37.311Z,4.22
2023-03-02T17:57:07.053Z,4.14
2023-03-02T17:59:35.614Z,4.10
2023-03-02T18:02:04.084Z,4.04
2023-03-02T18:04:32.475Z,3.99
2023-03-02T18:07:01.662Z,3.93
2023-03-02T18:09:30.048Z,3.88
2023-03-02T18:11:58.452Z,3.82
2023-03-02T18:14:28.502Z,3.76
2023-03-02T18:16:56.881Z,3.72
2023-03-02T18:19:25.233Z,3.66
2023-03-02T18:21:53.828Z,3.60
2023-03-02T18:24:22.154Z,3.56
2023-03-02T18:26:50.898Z,3.49
2023-03-02T18:29:19.241Z,3.44
2023-03-02T18:31:49.701Z,3.38
2023-03-02T18:34:19.784Z,3.32
2023-03-02T18:36:48.908Z,3.27
2023-03-02T18:39:17.354Z,3.23
2023-03-02T18:41:45.713Z,3.17
2023-03-02T18:44:14.015Z,3.11
2023-03-02T18:46:42.378Z,3.08
2023-03-02T18:49:12.184Z,3.04
2023-03-02T18:51:40.578Z,2.97
2023-03-02T18:54:08.966Z,2.95
2023-03-02T18:56:39.074Z,2.90
2023-03-02T18:59:09.532Z,2.86
2023-03-02T19:01:38.120Z,2.81
2023-03-02T19:04:07.084Z,2.79
2023-03-02T19:06:36.923Z,2.76
2023-03-02T19:09:05.377Z,2.70
2023-03-02T19:11:33.765Z,2.67
2023-03-02T19:14:02.239Z,2.67
2023-03-02T19:16:30.659Z,2.69
2023-03-02T19:18:59.292Z,2.76
2023-03-02T19:21:27.726Z,2.92
2023-03-02T19:23:57.494Z,3.06
2023-03-02T19:26:25.953Z,3.17
2023-03-02T19:28:55.070Z,3.28
2023-03-02T19:31:23.644Z,3.38
2023-03-02T19:33:52.074Z,3.48
2023-03-02T19:36:20.615Z,3.55
2023-03-02T19:38:48.887Z,3.65
2023-03-02T19:41:20.406Z,3.71
2023-03-02T19:43:49.369Z,3.75
2023-03-02T19:46:19.132Z,3.78
2023-03-02T19:48:47.538Z,3.82
2023-03-02T19:51:17.388Z,3.83
2023-03-02T19:53:47.137Z,3.86
2023-03-02T19:56:18.499Z,3.87
2023-03-02T19:58:53.538Z,3.87
2023-03-02T20:01:24.790Z,3.88
2023-03-02T20:03:54.424Z,3.89
2023-03-02T20:06:25.576Z,3.90
2023-03-02T20:08:54.463Z,3.91
2023-03-02T20:11:25.181Z,3.94
2023-03-02T20:13:53.857Z,3.96
2023-03-02T20:16:23.357Z,4.00
2023-03-02T20:18:52.050Z,4.02
2023-03-02T20:21:21.462Z,4.03
2023-03-02T20:23:49.940Z,4.01
2023-03-02T20:26:18.424Z,4.01
2023-03-02T20:28:49.028Z,4.03
2023-03-02T20:31:18.035Z,4.03
2023-03-02T20:33:49.600Z,4.02
2023-03-02T20:36:23.513Z,3.97
2023-03-02T20:38:59.162Z,3.94
2023-03-02T20:41:28.256Z,3.93
2023-03-02T20:43:58.437Z,3.93
2023-03-02T20:46:30.124Z,3.92
2023-03-02T20:48:59.221Z,3.94
2023-03-02T20:51:28.855Z,3.97
2023-03-02T20:53:57.631Z,3.99
2023-03-02T20:56:26.752Z,3.99
2023-03-02T20:58:55.387Z,4.00
2023-03-02T21:01:25.970Z,4.01
2023-03-02T21:03:54.445Z,4.02
2023-03-02T21:06:23.036Z,4.05
2023-03-02T21:08:52.601Z,4.06
2023-03-02T21:11:22.398Z,4.04
2023-03-02T21:13:51.150Z,4.02
2023-03-02T21:16:23.593Z,4.02
2023-03-02T21:18:55.203Z,4.00
2023-03-02T21:21:40.387Z,3.99
2023-03-02T21:24:11.121Z,3.98
2023-03-02T21:26:41.617Z,3.97
2023-03-02T21:29:12.183Z,3.97
2023-03-02T21:31:42.296Z,3.97
2023-03-02T21:34:13.638Z,3.99
2023-03-02T21:36:42.259Z,4.00
2023-03-02T21:39:12.486Z,4.04
2023-03-02T21:41:41.172Z,4.07
2023-03-02T21:44:09.540Z,4.09
2023-03-02T21:46:39.536Z,4.06
2023-03-02T21:49:08.774Z,4.03
2023-03-02T21:51:38.505Z,4.01
2023-03-02T21:54:07.042Z,3.99
2023-03-02T21:56:35.537Z,3.98
2023-03-02T21:59:05.119Z,3.97
2023-03-02T22:01:33.888Z,3.96
2023-03-02T22:04:02.705Z,3.96
2023-03-02T22:06:33.655Z,3.96
2023-03-02T22:09:03.910Z,3.96
2023-03-02T22:11:36.018Z,3.97
2023-03-02T22:14:12.626Z,3.96
2023-03-02T22:16:43.281Z,3.98
2023-03-02T22:19:26.465Z,4.00
2023-03-02T22:21:56.150Z,4.03
2023-03-02T22:24:28.804Z,4.06
2023-03-02T22:27:01.816Z,4.10
2023-03-02T22:29:33.887Z,4.11
2023-03-02T22:32:19.447Z,4.09
2023-03-02T22:34:49.622Z,4.12
2023-03-02T22:37:19.766Z,4.12
2023-03-02T22:39:51.040Z,4.11
2023-03-02T22:42:22.115Z,4.09
2023-03-02T22:45:03.836Z,4.08
2023-03-02T22:47:32.412Z,4.07
2023-03-02T22:50:07.746Z,4.07
2023-03-02T22:52:41.895Z,4.06
2023-03-02T22:55:36.426Z,4.04
2023-03-02T22:58:46.769Z,4.00
2023-03-02T23:01:22.797Z,3.96
2023-03-02T23:03:53.820Z,3.96
2023-03-02T23:06:31.505Z,3.96
2023-03-02T23:09:02.674Z,3.94
2023-03-02T23:11:40.983Z,3.92
2023-03-02T23:14:20.232Z,3.88
2023-03-02T23:16:56.483Z,3.88
2023-03-02T23:19:26.517Z,3.90
2023-03-02T23:21:55.368Z,3.95
2023-03-02T23:24:23.962Z,3.98
2023-03-02T23:26:54.264Z,3.99
2023-03-02T23:29:23.224Z,4.01
2023-03-02T23:31:52.071Z,4.05
2023-03-02T23:34:21.573Z,4.07
2023-03-02T23:36:50.004Z,4.08
2023-03-02T23:39:18.698Z,4.10
2023-03-02T23:41:47.309Z,4.10
2023-03-02T23:44:19.374Z,4.08
2023-03-02T23:46:48.620Z,4.06
2023-03-02T23:49:17.961Z,4.05
2023-03-02T23:51:46.519Z,4.01
2023-03-02T23:54:16.009Z,4.02
2023-03-02T23:56:44.953Z,4.02
2023-03-02T23:59:13.355Z,4.02
